Time;durP1;ratioP1;P1;durP2;ratioP2;P2;SDS_P1;SDS_P2;PMS_P1;PMS_P2;Temp;Humidity;BMP_temperature;BMP_pressure;BME280_temperature;BME280_humidity;BME280_pressure;Samples;Min_cycle;Max_cycle;Signal;HPM_P1;HPM_P2
2022/09/23 00:01:06;;;;;;;2.65;1.00;;;;;;;6.81;57.52;101319.13;4905987;28;97894;-69
2022/09/23 00:03:34;;;;;;;4.45;1.10;;;;;;;6.79;57.64;101313.16;4920938;28;97502;-69
2022/09/23 00:06:06;;;;;;;2.85;1.10;;;;;;;6.80;57.62;101322.03;4907055;28;97411;-67
2022/09/23 00:08:32;;;;;;;2.55;0.80;;;;;;;6.79;57.52;101321.19;4904119;28;97771;-67
2022/09/23 00:11:05;;;;;;;1.70;0.68;;;;;;;6.77;57.21;101312.56;4902710;28;97499;-67
2022/09/23 00:13:33;;;;;;;1.55;0.75;;;;;;;6.78;57.65;101316.06;4902078;28;98929;-69
2022/09/23 00:16:08;;;;;;;2.10;0.80;;;;;;;6.77;57.42;101307.22;4920121;28;97486;-67
2022/09/23 00:18:35;;;;;;;2.72;0.85;;;;;;;6.73;57.55;101297.16;4912752;28;97478;-69
2022/09/23 00:21:09;;;;;;;5.38;1.58;;;;;;;6.69;56.97;101296.78;4888308;28;97843;-67
2022/09/23 00:23:39;;;;;;;2.65;1.20;;;;;;;6.63;57.61;101300.34;4888244;28;97866;-67
2022/09/23 00:26:07;;;;;;;3.65;1.13;;;;;;;6.57;57.34;101295.88;4889926;28;97510;-67
2022/09/23 00:28:35;;;;;;;3.50;0.95;;;;;;;6.55;57.26;101292.59;4882937;28;97775;-67
2022/09/23 00:31:06;;;;;;;4.05;0.98;;;;;;;6.54;57.22;101294.44;4889369;28;97658;-67
2022/09/23 00:33:32;;;;;;;2.33;0.77;;;;;;;6.51;57.76;101291.38;4915252;28;97356;-67
2022/09/23 00:36:04;;;;;;;2.42;0.80;;;;;;;6.52;57.55;101301.06;4899573;28;112176;-69
2022/09/23 00:38:30;;;;;;;1.85;0.88;;;;;;;6.48;57.69;101294.50;4899984;28;97485;-69
2022/09/23 00:40:57;;;;;;;2.17;0.90;;;;;;;6.45;57.61;101293.09;4883667;28;97684;-67
2022/09/23 00:43:45;;;;;;;2.42;0.82;;;;;;;6.42;57.50;101290.84;4888871;28;97129;-67
2022/09/23 00:46:37;;;;;;;2.85;0.80;;;;;;;6.41;57.05;101297.25;4926219;28;103744;-67
2022/09/23 00:49:18;;;;;;;2.38;0.85;;;;;;;6.42;57.63;101296.22;4899587;28;97627;-69
2022/09/23 00:51:49;;;;;;;3.45;0.65;;;;;;;6.42;57.37;101293.53;4915781;28;97562;-67
2022/09/23 00:54:15;;;;;;;2.65;0.77;;;;;;;6.39;57.79;101293.97;4882959;28;97873;-67
2022/09/23 00:56:42;;;;;;;2.00;0.80;;;;;;;6.39;57.58;101288.59;4901465;28;97552;-67
2022/09/23 00:59:08;;;;;;;2.60;0.70;;;;;;;6.37;57.33;101282.66;4909677;28;97643;-67
2022/09/23 01:01:36;;;;;;;1.80;0.55;;;;;;;6.33;57.99;101282.28;4891806;28;98435;-69
2022/09/23 01:04:02;;;;;;;1.52;0.55;;;;;;;6.34;57.76;101286.59;4911401;28;99397;-67
2022/09/23 01:06:28;;;;;;;4.35;0.80;;;;;;;6.31;57.51;101288.88;4903933;28;97536;-67
2022/09/23 01:08:56;;;;;;;1.92;0.57;;;;;;;6.29;57.44;101286.44;4921073;28;97799;-67
2022/09/23 01:12:13;;;;;;;4.28;0.70;;;;;;;6.27;57.38;101285.81;4899868;28;97626;-69
2022/09/23 01:15:11;;;;;;;1.40;0.40;;;;;;;6.24;57.08;101277.41;4916187;28;97531;-67
2022/09/23 01:17:55;;;;;;;1.58;0.50;;;;;;;6.23;57.25;101278.44;4901909;28;97838;-67
2022/09/23 01:21:13;;;;;;;4.20;0.70;;;;;;;6.17;56.81;101272.13;4929563;28;97616;-69
2022/09/23 01:24:13;;;;;;;1.75;0.60;;;;;;;6.12;57.02;101269.25;4906765;28;97613;-69
2022/09/23 01:26:57;;;;;;;1.90;0.80;;;;;;;6.08;56.98;101270.75;4944214;28;97513;-67
2022/09/23 01:29:45;;;;;;;1.75;0.63;;;;;;;6.03;57.31;101265.22;4892332;28;98074;-68
2022/09/23 01:32:42;;;;;;;3.33;0.70;;;;;;;5.99;57.45;101258.66;4942001;28;97913;-67
2022/09/23 01:35:41;;;;;;;1.50;0.52;;;;;;;5.91;56.76;101257.88;4908931;28;97441;-69
2022/09/23 01:38:40;;;;;;;2.22;0.75;;;;;;;5.87;56.96;101253.97;4932446;28;97429;-69
2022/09/23 01:41:43;;;;;;;1.55;0.73;;;;;;;5.81;56.87;101256.69;4926376;28;97612;-67
2022/09/23 01:44:33;;;;;;;1.60;0.68;;;;;;;5.72;57.55;101253.47;4933199;28;97703;-69
2022/09/23 01:47:20;;;;;;;2.40;0.65;;;;;;;5.60;57.54;101247.16;4923773;28;97733;-70
2022/09/23 01:53:11;;;;;;;2.00;0.80;;;;;;;5.42;57.65;101245.19;4914833;28;97275;-67
2022/09/23 01:55:40;;;;;;;2.13;0.55;;;;;;;5.39;57.17;101242.97;4890008;28;99580;-67
2022/09/23 01:58:15;;;;;;;1.38;0.57;;;;;;;5.38;57.10;101250.19;4899716;28;97658;-69
2022/09/23 02:01:05;;;;;;;1.20;0.43;;;;;;;5.37;57.44;101251.19;4923351;28;97500;-69
2022/09/23 02:03:48;;;;;;;3.40;0.70;;;;;;;5.38;57.45;101242.16;4938776;28;97349;-69
2022/09/23 02:06:22;;;;;;;1.77;0.82;;;;;;;5.39;57.82;101248.34;4913224;28;97811;-67
2022/09/23 02:08:59;;;;;;;1.90;0.60;;;;;;;5.36;57.11;101241.53;4913534;28;97736;-69
2022/09/23 02:11:25;;;;;;;2.42;0.60;;;;;;;5.37;57.93;101245.84;4908952;28;97734;-67
2022/09/23 02:14:18;;;;;;;1.40;0.60;;;;;;;5.33;57.09;101233.94;4905800;28;97656;-67
2022/09/23 02:16:54;;;;;;;1.92;0.60;;;;;;;5.30;57.92;101233.53;4912458;28;97780;-67
2022/09/23 02:19:31;;;;;;;1.98;0.52;;;;;;;5.26;57.46;101233.16;4914437;28;97639;-69
2022/09/23 02:22:07;;;;;;;2.90;0.68;;;;;;;5.22;57.39;101231.94;4904756;28;98209;-67
2022/09/23 02:24:35;;;;;;;2.17;0.55;;;;;;;5.20;57.88;101228.69;4912347;28;98704;-69
2022/09/23 02:27:29;;;;;;;2.17;0.55;;;;;;;5.18;57.73;101236.06;4920612;28;97832;-67
2022/09/23 02:30:13;;;;;;;1.70;0.57;;;;;;;5.14;57.52;101237.53;4913389;28;97876;-67
2022/09/23 02:33:19;;;;;;;1.20;0.52;;;;;;;5.10;57.12;101229.13;4916391;28;97822;-67
2022/09/23 02:35:58;;;;;;;1.88;0.70;;;;;;;5.10;57.39;101225.63;4941939;28;97537;-67
2022/09/23 02:38:34;;;;;;;2.95;1.00;;;;;;;5.03;57.26;101223.00;4910755;28;97708;-69
2022/09/23 02:41:14;;;;;;;1.50;0.70;;;;;;;4.97;57.68;101221.16;4931319;28;97839;-67
2022/09/23 02:43:58;;;;;;;2.63;1.10;;;;;;;4.92;56.99;101218.31;4927042;28;99173;-67
2022/09/23 02:46:26;;;;;;;2.75;1.02;;;;;;;4.88;57.96;101215.25;4932048;28;97692;-69
2022/09/23 02:49:04;;;;;;;2.30;1.13;;;;;;;4.83;57.95;101220.38;4939674;28;98137;-69
2022/09/23 02:51:33;;;;;;;1.77;0.85;;;;;;;4.83;57.71;101214.22;4922239;28;97828;-67
2022/09/23 02:54:00;;;;;;;2.40;1.08;;;;;;;4.83;58.10;101208.88;4909902;28;97705;-69
2022/09/23 02:56:27;;;;;;;2.85;1.20;;;;;;;4.83;57.56;101217.72;4901844;28;97387;-67
2022/09/23 02:58:55;;;;;;;2.28;0.95;;;;;;;4.82;57.76;101209.91;4925077;28;97588;-68
2022/09/23 03:01:45;;;;;;;1.88;0.88;;;;;;;4.79;57.39;101205.81;4931296;28;100194;-67
2022/09/23 03:05:13;;;;;;;4.65;2.38;;;;;;;4.73;57.42;101211.19;4953576;28;97743;-67
2022/09/23 03:07:54;;;;;;;6.43;2.25;;;;;;;4.73;57.64;101208.53;4914217;28;97750;-67
2022/09/23 03:10:52;;;;;;;3.03;1.10;;;;;;;4.73;57.70;101219.22;4933383;28;98130;-69
2022/09/23 03:13:52;;;;;;;2.05;0.75;;;;;;;4.72;57.54;101207.72;4938048;28;97713;-69
2022/09/23 03:16:46;;;;;;;1.45;0.60;;;;;;;4.71;57.54;101199.88;4909316;28;97430;-70
2022/09/23 03:19:51;;;;;;;2.28;0.70;;;;;;;4.69;57.21;101197.44;4920799;28;97493;-67
2022/09/23 03:22:31;;;;;;;2.67;0.60;;;;;;;4.67;57.38;101200.28;4940973;28;97569;-69
2022/09/23 03:25:08;;;;;;;2.50;0.52;;;;;;;4.65;57.25;101191.69;4902590;28;100426;-67
2022/09/23 03:27:34;;;;;;;2.20;0.68;;;;;;;4.65;57.47;101186.34;4900168;28;97561;-67
2022/09/23 03:30:05;;;;;;;1.75;0.80;;;;;;;4.64;58.11;101190.06;4906344;28;97988;-69
2022/09/23 03:32:32;;;;;;;2.40;0.60;;;;;;;4.62;58.03;101189.44;4918063;28;98435;-67
2022/09/23 03:35:01;;;;;;;1.55;0.60;;;;;;;4.59;57.55;101189.03;4904196;28;97835;-69
2022/09/23 03:37:54;;;;;;;1.75;0.80;;;;;;;4.59;57.82;101183.69;4903421;28;97582;-67
2022/09/23 03:40:34;;;;;;;;;;;;;;;4.55;57.11;101187.81;4905057;28;97584;-67
2022/09/23 03:43:01;;;;;;;2.10;0.68;;;;;;;4.53;57.54;101184.56;4916457;28;97374;-67
2022/09/23 03:45:30;;;;;;;1.85;0.65;;;;;;;4.54;57.98;101187.00;4901011;28;97960;-66
2022/09/23 03:47:56;;;;;;;1.50;0.70;;;;;;;4.58;57.90;101174.03;4882693;28;97807;-67
2022/09/23 03:50:23;;;;;;;1.88;0.68;;;;;;;4.62;57.58;101184.09;4904738;28;97273;-67
2022/09/23 03:52:49;;;;;;;1.80;0.60;;;;;;;4.64;57.74;101176.72;4890478;28;97487;-67
2022/09/23 03:55:16;;;;;;;1.38;0.60;;;;;;;4.66;57.81;101173.81;4895428;28;97919;-67
2022/09/23 03:57:44;;;;;;;3.70;0.75;;;;;;;4.67;58.28;101172.78;4908537;28;97654;-67
2022/09/23 04:00:12;;;;;;;2.60;0.70;;;;;;;4.71;57.73;101175.84;4890876;28;97323;-69
2022/09/23 04:02:39;;;;;;;1.90;0.60;;;;;;;4.72;58.08;101174.84;4899786;28;97782;-67
2022/09/23 04:05:07;;;;;;;1.52;0.68;;;;;;;4.73;57.39;101165.78;4900798;28;97852;-67
2022/09/23 04:07:33;;;;;;;2.70;0.90;;;;;;;4.72;57.60;101167.63;4880864;28;108053;-69
2022/09/23 04:09:59;;;;;;;2.45;0.98;;;;;;;4.75;58.25;101166.38;4901215;28;97602;-69
2022/09/23 04:12:26;;;;;;;1.63;0.88;;;;;;;4.73;57.68;101163.13;4890845;28;99455;-69
2022/09/23 04:14:53;;;;;;;1.80;0.82;;;;;;;4.71;57.91;101167.84;4890760;28;110524;-70
2022/09/23 04:17:20;;;;;;;3.47;1.20;;;;;;;4.68;58.04;101164.56;4891573;28;97425;-67
2022/09/23 04:19:47;;;;;;;2.30;0.93;;;;;;;4.68;57.87;101158.41;4890232;28;97337;-69
2022/09/23 04:22:14;;;;;;;1.73;0.70;;;;;;;4.67;57.73;101164.75;4881342;28;97723;-69
2022/09/23 04:24:40;;;;;;;2.33;0.90;;;;;;;4.67;57.53;101164.75;4883122;28;97940;-69
2022/09/23 04:27:07;;;;;;;1.92;0.95;;;;;;;4.66;57.48;101169.28;4918865;28;97621;-67
2022/09/23 04:29:33;;;;;;;5.38;1.30;;;;;;;4.63;57.48;101161.69;4885308;28;97294;-67
2022/09/23 04:32:00;;;;;;;2.50;1.25;;;;;;;4.61;57.86;101158.44;4906048;28;99522;-67
2022/09/23 04:34:26;;;;;;;3.28;1.50;;;;;;;4.57;58.12;101153.72;4901365;28;98114;-67
2022/09/23 04:36:52;;;;;;;2.20;1.23;;;;;;;4.54;57.75;101152.28;4905598;28;98989;-67
2022/09/23 04:39:38;;;;;;;2.33;1.13;;;;;;;4.49;57.36;101141.41;4891838;28;97880;-69
2022/09/23 04:42:06;;;;;;;1.85;1.00;;;;;;;4.48;57.82;101154.97;4916391;28;98232;-69
2022/09/23 04:44:33;;;;;;;3.75;0.90;;;;;;;4.42;57.42;101149.44;4903113;28;97761;-69
2022/09/23 04:47:00;;;;;;;1.98;0.70;;;;;;;4.41;57.59;101149.66;4884868;28;97856;-70
2022/09/23 04:49:26;;;;;;;1.98;0.88;;;;;;;4.40;57.71;101146.19;4904320;28;97965;-69
2022/09/23 04:51:53;;;;;;;4.13;0.68;;;;;;;4.40;57.78;101145.34;4918280;28;97712;-67
2022/09/23 04:54:36;;;;;;;1.60;0.60;;;;;;;4.35;57.82;101143.28;4891666;28;98130;-69
2022/09/23 04:57:04;;;;;;;2.38;0.65;;;;;;;4.33;58.04;101149.91;4889022;28;97797;-69
2022/09/23 04:59:31;;;;;;;1.38;0.60;;;;;;;4.32;57.49;101149.06;4889718;28;98641;-69
2022/09/23 05:01:58;;;;;;;2.63;1.20;;;;;;;4.29;57.95;101156.69;4902345;28;97613;-68
2022/09/23 05:04:25;;;;;;;1.15;0.63;;;;;;;4.26;57.79;101152.56;4912417;28;97301;-67
2022/09/23 05:06:52;;;;;;;2.38;0.80;;;;;;;4.22;57.73;101146.00;4903637;28;97536;-70
2022/09/23 05:09:18;;;;;;;1.60;0.73;;;;;;;4.22;57.96;101143.34;4893433;28;97566;-67
2022/09/23 05:11:45;;;;;;;2.30;0.50;;;;;;;4.18;57.99;101148.28;4893553;28;97643;-69
2022/09/23 05:14:11;;;;;;;1.25;0.50;;;;;;;4.18;57.34;101150.13;4894631;28;98216;-67
2022/09/23 05:16:37;;;;;;;1.60;0.60;;;;;;;4.19;57.72;101149.91;4894207;28;97224;-67
2022/09/23 05:19:04;;;;;;;1.40;0.68;;;;;;;4.19;57.86;101149.91;4909521;28;117673;-67
2022/09/23 05:21:36;;;;;;;1.52;0.70;;;;;;;4.25;57.53;101150.13;4922468;28;97803;-69
2022/09/23 05:24:02;;;;;;;2.03;0.80;;;;;;;4.28;57.91;101155.03;4916597;28;98546;-67
2022/09/23 05:26:30;;;;;;;3.70;0.73;;;;;;;4.30;57.39;101151.13;4892888;28;97760;-67
2022/09/23 05:28:57;;;;;;;2.60;0.80;;;;;;;4.32;57.29;101149.06;4905118;28;97527;-67
2022/09/23 05:31:29;;;;;;;2.78;0.93;;;;;;;4.33;57.38;101155.22;4893088;28;97746;-69
2022/09/23 05:34:04;;;;;;;2.50;1.02;;;;;;;4.29;57.94;101152.16;4906723;28;97939;-69
2022/09/23 05:36:32;;;;;;;2.78;1.15;;;;;;;4.29;57.57;101148.69;4889554;28;97483;-68
2022/09/23 05:38:59;;;;;;;2.80;0.70;;;;;;;4.32;57.48;101150.91;4908547;28;97792;-70
2022/09/23 05:41:26;;;;;;;5.28;1.80;;;;;;;4.37;57.70;101153.78;4884769;28;97841;-70
2022/09/23 05:43:53;;;;;;;4.10;1.58;;;;;;;4.40;57.85;101158.69;4890269;28;97815;-68
2022/09/23 05:46:28;;;;;;;4.18;1.58;;;;;;;4.43;57.81;101151.06;4905269;28;103765;-68
2022/09/23 05:48:59;;;;;;;3.17;1.10;;;;;;;4.46;57.66;101144.50;4921366;28;97605;-70
2022/09/23 05:51:26;;;;;;;2.15;0.90;;;;;;;4.49;57.81;101152.09;4926226;28;98391;-70
2022/09/23 05:53:54;;;;;;;5.45;1.38;;;;;;;4.51;58.24;101150.03;4891155;28;99631;-68
2022/09/23 05:56:22;;;;;;;2.78;0.88;;;;;;;4.52;57.92;101145.50;4891738;28;97858;-68
2022/09/23 05:58:50;;;;;;;2.95;0.95;;;;;;;4.52;58.33;101141.00;4905619;28;97602;-69
2022/09/23 06:01:25;;;;;;;2.20;0.77;;;;;;;4.56;58.12;101147.56;4908934;28;99969;-70
2022/09/23 06:03:55;;;;;;;4.32;1.10;;;;;;;4.63;58.01;101151.00;4904429;28;97754;-68
2022/09/23 06:06:27;;;;;;;3.00;1.00;;;;;;;4.69;58.16;101149.34;4918766;28;99115;-70
2022/09/23 06:08:54;;;;;;;3.10;1.15;;;;;;;4.75;57.72;101148.50;4921286;28;97548;-67
2022/09/23 06:11:20;;;;;;;3.42;1.23;;;;;;;4.85;57.71;101150.72;4903283;28;97617;-70
2022/09/23 06:13:47;;;;;;;3.17;1.10;;;;;;;4.91;58.15;101156.06;4892083;28;97679;-67
2022/09/23 06:16:14;;;;;;;3.80;1.38;;;;;;;5.00;57.95;101156.63;4888532;28;97474;-68
2022/09/23 06:18:44;;;;;;;2.65;1.33;;;;;;;5.06;58.01;101155.75;4891740;28;97335;-70
2022/09/23 06:21:17;;;;;;;3.95;1.42;;;;;;;5.17;58.08;101149.72;4889810;28;97645;-70
2022/09/23 06:23:43;;;;;;;3.33;1.50;;;;;;;5.28;57.91;101147.41;4918987;28;97703;-67
2022/09/23 06:26:15;;;;;;;3.42;1.13;;;;;;;5.40;58.36;101146.50;4919789;28;97752;-69
2022/09/23 06:28:42;;;;;;;4.00;1.85;;;;;;;5.56;58.28;101145.13;4915937;28;97464;-67
2022/09/23 06:31:14;;;;;;;5.47;1.60;;;;;;;5.70;58.12;101145.03;4892108;28;97605;-70
2022/09/23 06:33:43;;;;;;;4.38;2.25;;;;;;;5.86;57.83;101149.84;4906095;28;98759;-68
2022/09/23 06:36:14;;;;;;;4.47;2.40;;;;;;;6.07;57.73;101148.66;4905342;28;97878;-70
2022/09/23 06:38:43;;;;;;;4.00;1.92;;;;;;;6.17;58.03;101145.44;4886523;28;98017;-67
2022/09/23 06:41:10;;;;;;;5.75;2.20;;;;;;;6.25;57.70;101147.84;4902147;28;97489;-67
2022/09/23 06:43:36;;;;;;;7.55;2.75;;;;;;;6.29;58.32;101139.16;4902105;28;97837;-68
2022/09/23 06:46:04;;;;;;;6.47;2.60;;;;;;;6.38;57.97;101142.34;4904730;28;97642;-68
2022/09/23 06:48:34;;;;;;;5.97;1.92;;;;;;;6.45;58.06;101135.06;4891573;28;97595;-67
2022/09/23 06:51:02;;;;;;;4.38;2.15;;;;;;;6.57;58.27;101144.00;4908324;28;99926;-67
2022/09/23 06:53:31;;;;;;;3.03;1.73;;;;;;;6.69;58.37;101146.75;4881115;28;99877;-68
2022/09/23 06:56:08;;;;;;;3.03;1.58;;;;;;;6.80;58.23;101137.13;4916386;28;98863;-70
2022/09/23 06:58:40;;;;;;;5.22;1.35;;;;;;;6.90;58.44;101140.06;4900113;28;97812;-69
2022/09/23 07:01:10;;;;;;;2.27;1.13;;;;;;;7.00;58.43;101135.00;4901582;28;99735;-69
2022/09/23 07:03:37;;;;;;;3.15;1.27;;;;;;;7.12;58.66;101137.72;4911339;28;99726;-69
2022/09/23 07:06:04;;;;;;;4.72;1.63;;;;;;;7.26;58.60;101138.34;4893057;28;97775;-68
2022/09/23 07:08:32;;;;;;;2.85;1.60;;;;;;;7.37;58.78;101130.31;4905963;28;97433;-70
2022/09/23 07:11:01;;;;;;;3.72;1.77;;;;;;;7.52;58.28;101142.50;4893627;28;99654;-70
2022/09/23 07:13:28;;;;;;;3.42;1.52;;;;;;;7.66;58.91;101135.84;4913095;28;97757;-67
2022/09/23 07:15:57;;;;;;;3.80;1.88;;;;;;;7.79;58.48;101132.94;4883785;28;97445;-68
2022/09/23 07:18:24;;;;;;;3.90;1.73;;;;;;;7.92;58.86;101136.47;4891828;28;97677;-68
2022/09/23 07:20:53;;;;;;;3.20;1.52;;;;;;;8.05;58.86;101128.97;4908493;28;99506;-69
2022/09/23 07:23:20;;;;;;;2.60;1.40;;;;;;;8.18;58.57;101132.50;4906491;28;97874;-68
2022/09/23 07:25:49;;;;;;;3.05;1.08;;;;;;;8.32;59.13;101131.16;4888929;28;97503;-70
2022/09/23 07:28:15;;;;;;;2.55;1.30;;;;;;;8.47;58.99;101131.53;4920544;28;97527;-70
2022/09/23 07:30:42;;;;;;;2.97;1.23;;;;;;;8.68;58.98;101135.44;4881190;28;97741;-70
2022/09/23 07:33:08;;;;;;;2.65;1.10;;;;;;;8.85;58.93;101122.88;4895693;28;97612;-70
2022/09/23 07:35:38;;;;;;;2.47;1.15;;;;;;;9.04;58.61;101120.81;4902803;28;97567;-68
2022/09/23 07:38:04;;;;;;;2.58;0.95;;;;;;;9.29;58.44;101127.72;4890729;28;97386;-67
2022/09/23 07:40:30;;;;;;;2.53;0.93;;;;;;;9.52;58.35;101124.88;4892907;28;97869;-68
2022/09/23 07:42:56;;;;;;;1.90;1.05;;;;;;;9.76;57.88;101125.53;4883762;28;105385;-68
2022/09/23 07:45:23;;;;;;;2.45;1.02;;;;;;;10.00;57.77;101122.63;4884850;28;97507;-68
2022/09/23 07:47:49;;;;;;;3.25;0.98;;;;;;;10.26;57.93;101129.25;4901837;28;97900;-68
2022/09/23 07:50:15;;;;;;;3.42;0.95;;;;;;;10.50;57.53;101127.94;4913940;28;107435;-68
2022/09/23 07:52:51;;;;;;;1.60;0.70;;;;;;;10.76;57.21;101126.34;4886133;28;114009;-70
2022/09/23 07:55:18;;;;;;;2.83;0.85;;;;;;;11.03;57.24;101125.56;4917276;28;97230;-68
2022/09/23 07:57:45;;;;;;;2.30;0.90;;;;;;;11.33;56.74;101119.66;4891519;28;97825;-68
2022/09/23 08:00:14;;;;;;;2.22;0.80;;;;;;;11.65;56.23;101126.94;4899839;28;97950;-70
2022/09/23 08:02:41;;;;;;;3.88;1.00;;;;;;;11.97;55.94;101119.63;4919707;28;97958;-68
2022/09/23 08:05:08;;;;;;;1.38;0.60;;;;;;;12.34;55.64;101123.31;4914132;28;97793;-68
2022/09/23 08:07:34;;;;;;;2.35;0.93;;;;;;;12.73;55.28;101121.03;4912135;28;98081;-70
2022/09/23 08:10:01;;;;;;;1.75;0.65;;;;;;;13.24;54.62;101113.91;4915141;28;97682;-68
2022/09/23 08:12:28;;;;;;;1.45;0.40;;;;;;;13.84;53.83;101119.59;4890118;28;97606;-68
2022/09/23 08:14:55;;;;;;;3.47;0.47;;;;;;;14.37;52.99;101117.25;4920944;28;97628;-70
2022/09/23 08:17:21;;;;;;;1.08;0.50;;;;;;;15.00;52.52;101121.34;4891849;28;97931;-70
2022/09/23 08:19:47;;;;;;;1.67;0.52;;;;;;;15.52;51.57;101115.25;4901614;28;97801;-69
2022/09/23 08:22:14;;;;;;;1.52;0.57;;;;;;;15.92;51.79;101113.31;4919199;28;97935;-69
2022/09/23 08:24:41;;;;;;;2.85;0.40;;;;;;;16.31;50.99;101109.59;4901898;28;98031;-69
2022/09/23 08:27:15;;;;;;;1.85;0.43;;;;;;;16.96;50.42;101109.06;4902313;28;97595;-70
2022/09/23 08:29:41;;;;;;;1.20;0.55;;;;;;;17.51;49.50;101114.75;4929550;28;99889;-69
2022/09/23 08:32:07;;;;;;;2.30;0.30;;;;;;;18.06;48.73;101115.69;4892061;28;99565;-69
2022/09/23 08:34:34;;;;;;;1.35;0.50;;;;;;;18.52;48.37;101120.25;4890033;28;97784;-69
2022/09/23 08:37:01;;;;;;;1.35;0.50;;;;;;;18.96;48.10;101121.50;4900231;28;97781;-71
2022/09/23 08:39:30;;;;;;;3.50;0.40;;;;;;;19.35;47.55;101111.84;4901518;28;97849;-71
2022/09/23 08:42:18;;;;;;;0.75;0.30;;;;;;;19.72;47.78;101101.66;4903247;28;97843;-69
2022/09/23 08:45:00;;;;;;;1.50;0.30;;;;;;;20.03;47.53;101107.13;4926363;28;98213;-71
2022/09/23 08:47:39;;;;;;;0.55;0.30;;;;;;;20.26;46.46;101107.88;4878299;28;97031;-69
2022/09/23 08:50:13;;;;;;;1.35;0.30;;;;;;;20.48;46.82;101102.28;4897911;28;99526;-71
2022/09/23 08:52:57;;;;;;;0.82;0.30;;;;;;;20.69;46.24;101102.53;4896029;28;97976;-69
2022/09/23 08:55:39;;;;;;;0.88;0.30;;;;;;;20.91;46.33;101093.38;4907592;28;97704;-69
2022/09/23 08:58:35;;;;;;;1.10;0.35;;;;;;;21.20;46.10;101086.41;4910120;28;97666;-70
2022/09/23 09:01:32;;;;;;;1.15;0.40;;;;;;;21.45;45.82;101088.34;4926322;28;97770;-70
2022/09/23 09:04:03;;;;;;;1.52;0.30;;;;;;;21.71;45.00;101087.47;4896139;28;97698;-70
2022/09/23 09:06:48;;;;;;;0.60;0.20;;;;;;;21.95;45.40;101090.44;4907219;28;97745;-71
2022/09/23 09:09:27;;;;;;;0.63;0.20;;;;;;;22.19;45.33;101081.66;4912693;28;96996;-70
2022/09/23 09:12:16;;;;;;;0.60;0.20;;;;;;;22.39;44.18;101076.53;4912547;28;98020;-69
2022/09/23 09:15:01;;;;;;;1.92;0.30;;;;;;;22.66;44.55;101077.97;4905176;28;98207;-70
2022/09/23 09:17:39;;;;;;;1.73;0.30;;;;;;;22.86;43.94;101079.13;4920366;28;97602;-69
2022/09/23 09:20:17;;;;;;;1.27;0.30;;;;;;;23.06;43.92;101080.28;4905970;28;97758;-69
2022/09/23 09:22:59;;;;;;;0.75;0.20;;;;;;;23.25;43.80;101075.88;4943497;28;97696;-69
2022/09/23 09:25:35;;;;;;;0.63;0.20;;;;;;;23.56;42.97;101071.06;4880539;28;97591;-69
2022/09/23 09:28:19;;;;;;;1.23;0.20;;;;;;;24.00;41.53;101066.66;4910727;28;97581;-70
2022/09/23 09:30:52;;;;;;;0.60;0.20;;;;;;;24.65;40.92;101067.56;4938024;28;98011;-69
2022/09/23 09:33:26;;;;;;;0.60;0.20;;;;;;;25.24;39.96;101065.31;4886476;28;97572;-71
2022/09/23 09:36:31;;;;;;;0.40;0.20;;;;;;;25.83;40.34;101061.75;4883090;28;97659;-69
2022/09/23 09:38:58;;;;;;;2.30;0.10;;;;;;;26.25;38.79;101064.72;4908107;28;97575;-69
2022/09/23 09:41:30;;;;;;;0.20;0.10;;;;;;;26.67;37.83;101066.88;4903678;28;97533;-69
2022/09/23 09:43:59;;;;;;;;;;;;;;;27.08;39.97;101061.81;4904973;28;97801;-71
2022/09/23 09:46:35;;;;;;;0.77;0.10;;;;;;;27.10;37.79;101048.38;4936276;28;97751;-71
2022/09/23 09:49:21;;;;;;;1.42;0.20;;;;;;;27.36;38.12;101047.72;4930567;28;97556;-69
2022/09/23 09:52:10;;;;;;;0.52;0.10;;;;;;;27.57;36.64;101044.53;4904900;28;97657;-71
2022/09/23 09:54:37;;;;;;;0.50;0.20;;;;;;;27.83;36.56;101041.84;4928969;28;99546;-69
2022/09/23 09:57:15;;;;;;;0.82;0.10;;;;;;;28.09;35.99;101034.72;4907358;28;97600;-70
2022/09/23 09:59:42;;;;;;;0.35;0.10;;;;;;;28.47;35.31;101033.72;4900052;28;97466;-71
2022/09/23 10:02:28;;;;;;;0.35;0.10;;;;;;;29.03;36.02;101024.50;4891290;28;98055;-72
2022/09/23 10:05:02;;;;;;;1.58;0.10;;;;;;;29.40;35.17;101020.94;4881651;28;97652;-70
2022/09/23 10:07:31;;;;;;;0.30;0.10;;;;;;;29.70;33.80;101015.25;4908623;28;97843;-70
2022/09/23 10:10:00;;;;;;;0.50;0.10;;;;;;;29.79;33.42;101031.59;4890913;28;98022;-69
2022/09/23 10:12:26;;;;;;;1.95;0.10;;;;;;;29.84;32.84;101017.34;4897624;28;97579;-71
2022/09/23 10:14:57;;;;;;;0.73;0.10;;;;;;;30.19;33.15;101016.81;4907574;28;98159;-69
2022/09/23 10:17:34;;;;;;;0.20;0.10;;;;;;;30.79;32.93;101005.19;4898388;28;97698;-70
2022/09/23 10:20:05;;;;;;;0.70;0.10;;;;;;;31.40;31.38;101010.94;4901891;28;97775;-68
2022/09/23 10:22:37;;;;;;;0.60;0.20;;;;;;;31.96;30.93;101003.75;4908015;28;97737;-69
2022/09/23 10:25:27;;;;;;;;;;;;;;;33.21;32.05;101005.25;4906874;28;97832;-71
2022/09/23 10:27:57;;;;;;;0.43;0.10;;;;;;;33.46;30.96;100991.13;4931145;28;97600;-70
2022/09/23 10:30:27;;;;;;;0.35;0.10;;;;;;;33.75;30.46;100990.88;4901128;28;97803;-70
2022/09/23 10:32:57;;;;;;;0.30;0.10;;;;;;;34.22;29.70;100997.59;4925276;28;97714;-71
2022/09/23 10:35:25;;;;;;;0.30;0.10;;;;;;;34.14;29.21;100984.91;4923017;28;97759;-69
2022/09/23 10:37:58;;;;;;;0.52;0.10;;;;;;;34.72;28.75;100979.41;4905955;28;97988;-69
2022/09/23 10:47:23;;;;;;;0.20;0.10;;;;;;;34.79;30.02;100968.13;4941733;28;97540;-70
2022/09/23 10:50:04;;;;;;;0.50;0.20;;;;;;;34.42;29.86;100962.16;4947014;28;99719;-69
2022/09/23 10:52:35;;;;;;;0.88;0.30;;;;;;;34.01;29.09;100961.50;4902650;28;97645;-69
2022/09/23 10:55:07;;;;;;;0.67;0.20;;;;;;;33.30;30.37;100951.75;4919124;28;97837;-69
2022/09/23 10:57:45;;;;;;;1.23;0.20;;;;;;;33.60;29.02;100957.50;4954842;28;97951;-69
2022/09/23 11:00:22;;;;;;;0.40;0.20;;;;;;;33.89;29.50;100946.00;4942613;28;97757;-70
2022/09/23 11:03:08;;;;;;;0.50;0.20;;;;;;;34.15;28.05;100945.34;4944237;28;98087;-69
2022/09/23 11:06:06;;;;;;;0.52;0.10;;;;;;;34.03;28.89;100939.47;4912268;28;96965;-69
2022/09/23 11:09:15;;;;;;;0.63;0.17;;;;;;;34.25;28.67;100937.25;4929624;28;98099;-70
2022/09/23 11:12:15;;;;;;;0.80;0.20;;;;;;;34.39;28.24;100934.28;4934173;28;99668;-69
2022/09/23 11:14:59;;;;;;;0.60;0.20;;;;;;;34.65;27.91;100925.13;4909124;28;97556;-69
2022/09/23 11:17:45;;;;;;;0.57;0.20;;;;;;;35.25;27.11;100933.03;4881803;28;97844;-69
2022/09/23 11:20:46;;;;;;;0.68;0.20;;;;;;;35.57;27.13;100924.09;4906997;28;98529;-69
2022/09/23 11:23:37;;;;;;;0.63;0.20;;;;;;;35.61;26.65;100922.03;4912588;28;97563;-69
2022/09/23 11:26:15;;;;;;;0.55;0.20;;;;;;;35.74;26.88;100920.16;4928623;28;97570;-69
2022/09/23 11:29:01;;;;;;;0.80;0.10;;;;;;;35.68;25.70;100916.25;4931431;28;97526;-69
2022/09/23 11:32:00;;;;;;;0.40;0.10;;;;;;;35.08;27.31;100906.91;4949692;28;98898;-69
2022/09/23 11:35:01;;;;;;;0.32;0.10;;;;;;;35.10;27.02;100899.66;4930134;28;97699;-69
2022/09/23 11:37:40;;;;;;;0.30;0.10;;;;;;;33.09;28.45;100894.06;4935106;28;97334;-69
2022/09/23 11:40:30;;;;;;;0.50;0.10;;;;;;;31.10;28.89;100886.00;4920924;28;97872;-68
2022/09/23 11:43:06;;;;;;;0.98;0.20;;;;;;;29.76;29.85;100887.94;4920645;28;98304;-68
2022/09/23 11:45:39;;;;;;;0.68;0.10;;;;;;;28.66;30.44;100885.81;4906875;28;97852;-69
2022/09/23 11:48:16;;;;;;;0.50;0.10;;;;;;;27.69;31.71;100882.97;4890961;28;97751;-68
2022/09/23 11:51:27;;;;;;;0.32;0.10;;;;;;;26.81;32.31;100878.38;4912659;28;97772;-69
2022/09/23 11:54:27;;;;;;;0.52;0.10;;;;;;;26.05;32.87;100880.78;4920758;28;97562;-69
2022/09/23 11:56:56;;;;;;;0.20;0.03;;;;;;;25.59;32.29;100884.13;4916533;28;97883;-68
2022/09/23 11:59:40;;;;;;;0.38;0.10;;;;;;;25.55;32.85;100874.97;4888986;28;97464;-68
2022/09/23 12:02:29;;;;;;;0.17;0.00;;;;;;;26.44;31.66;100870.53;4939987;28;97201;-69
2022/09/23 12:05:01;;;;;;;0.45;0.00;;;;;;;25.78;32.04;100871.53;4923528;28;97609;-69
2022/09/23 12:07:38;;;;;;;1.45;0.10;;;;;;;25.36;31.93;100867.41;4922537;28;97694;-68
2022/09/23 12:10:06;;;;;;;0.55;0.00;;;;;;;24.88;32.22;100860.28;4887063;28;97481;-67
2022/09/23 12:12:53;;;;;;;0.25;0.10;;;;;;;24.54;32.73;100868.06;4891938;28;101048;-69
2022/09/23 12:16:02;;;;;;;0.20;0.10;;;;;;;24.73;32.56;100870.94;4889633;28;97884;-68
2022/09/23 12:18:58;;;;;;;0.40;0.10;;;;;;;24.74;32.72;100850.47;4939158;28;97675;-67